Eirunepe, Brazil
Current Conditions -  °F | °C
As of 11:00 AM on Wednesday 26 Nov 2014 (Local Time) from SKLT Reporting Station
Light Rain Light Rain  
Wind Chill: 75°   Ceiling: 600
Heat Index: 75°   Visibility: 3mi
Dew Point: 75°   Wind: 0mph
Humidity: 100%   Direction: NA
Pressure: 29.91"   Gusts: NA
Location:  6.66°S, 69.87°W
Report Text: SKLT 261500Z 00000KT 5000 -RA BKN006 BKN070 24/24 A2991 RMK AD OPR IMC
Loading
Personal Weather Stations






























Interactive Weather Map New forecast layout! Learn more

10-Day Weather Forecast

Advertisements
Track Severe Weather on mobile